Time;durP1;ratioP1;P1;durP2;ratioP2;P2;SDS_P1;SDS_P2;PMS_P1;PMS_P2;Temp;Humidity;BMP_temperature;BMP_pressure;BME280_temperature;BME280_humidity;BME280_pressure;Samples;Min_cycle;Max_cycle;Signal;HPM_P1;HPM_P2
2021/12/27 00:00:35;;;;;;;13.35;7.78;;;;;;;;;;5105696;28;20073;-45
2021/12/27 00:03:02;;;;;;;13.15;7.80;;;;;;;;;;5103287;28;20042;-46
2021/12/27 00:05:29;;;;;;;13.38;7.57;;;;;;;;;;5105282;28;20106;-46
2021/12/27 00:07:55;;;;;;;11.52;6.78;;;;;;;;;;5105397;28;20035;-47
2021/12/27 00:10:22;;;;;;;11.82;6.50;;;;;;;;;;5105426;28;20554;-47
2021/12/27 00:12:49;;;;;;;9.73;6.47;;;;;;;;;;5090082;28;20445;-46
2021/12/27 00:15:16;;;;;;;8.70;5.47;;;;;;;;;;5085523;28;20026;-45
2021/12/27 00:17:44;;;;;;;7.68;5.38;;;;;;;;;;5105208;28;20032;-45
2021/12/27 00:20:12;;;;;;;8.23;5.03;;;;;;;;;;5105013;28;20023;-45
2021/12/27 00:22:38;;;;;;;8.27;5.25;;;;;;;;;;5104093;28;20076;-45
2021/12/27 00:25:04;;;;;;;6.95;4.60;;;;;;;;;;5102552;28;20050;-45
2021/12/27 00:27:32;;;;;;;6.60;4.30;;;;;;;;;;5086777;28;20043;-47
2021/12/27 00:29:58;;;;;;;5.90;4.25;;;;;;;;;;5104248;28;20281;-45
2021/12/27 00:32:25;;;;;;;5.90;4.40;;;;;;;;;;5101740;28;20075;-46
2021/12/27 00:34:51;;;;;;;7.40;4.82;;;;;;;;;;5105109;28;20098;-45
2021/12/27 00:37:17;;;;;;;6.53;4.28;;;;;;;;;;5104679;28;20107;-46
2021/12/27 00:39:43;;;;;;;5.70;3.97;;;;;;;;;;5087510;28;20413;-45
2021/12/27 00:42:09;;;;;;;5.20;3.50;;;;;;;;;;5083958;28;20023;-46
2021/12/27 00:44:35;;;;;;;5.45;3.72;;;;;;;;;;5105497;28;20034;-46
2021/12/27 00:47:01;;;;;;;5.82;3.72;;;;;;;;;;5104828;28;20035;-46
2021/12/27 00:49:27;;;;;;;5.60;3.97;;;;;;;;;;5083257;28;20630;-45
2021/12/27 00:51:53;;;;;;;4.72;3.50;;;;;;;;;;5084234;28;20506;-45
2021/12/27 00:54:19;;;;;;;5.07;3.55;;;;;;;;;;5084394;28;20104;-47
2021/12/27 00:56:45;;;;;;;5.78;4.18;;;;;;;;;;5083328;28;20034;-46
2021/12/27 00:59:12;;;;;;;6.40;4.05;;;;;;;;;;5084809;28;20111;-46
2021/12/27 01:01:38;;;;;;;5.00;3.85;;;;;;;;;;5084554;28;20101;-45
2021/12/27 01:04:05;;;;;;;6.25;4.32;;;;;;;;;;5084278;28;20688;-45
2021/12/27 01:06:31;;;;;;;6.13;4.00;;;;;;;;;;5093519;28;20068;-46
2021/12/27 01:08:57;;;;;;;6.18;4.03;;;;;;;;;;5087411;28;20116;-45
2021/12/27 01:11:26;;;;;;;6.70;4.10;;;;;;;;;;5065721;28;20043;-46
2021/12/27 01:14:04;;;;;;;5.60;4.10;;;;;;;;;;5066038;28;20129;-45
2021/12/27 01:16:30;;;;;;;5.20;3.53;;;;;;;;;;5082862;28;20036;-45
2021/12/27 01:18:56;;;;;;;5.97;3.70;;;;;;;;;;5084092;28;20028;-45
2021/12/27 01:21:23;;;;;;;5.53;3.42;;;;;;;;;;5083757;28;20028;-45
2021/12/27 01:23:49;;;;;;;4.65;3.47;;;;;;;;;;5086094;28;20032;-46
2021/12/27 01:26:15;;;;;;;4.85;3.22;;;;;;;;;;5095352;28;20454;-45
2021/12/27 01:28:42;;;;;;;5.57;3.30;;;;;;;;;;5066551;28;20031;-45
2021/12/27 01:31:08;;;;;;;5.43;3.65;;;;;;;;;;5064780;28;20024;-45
2021/12/27 01:33:34;;;;;;;5.65;3.78;;;;;;;;;;5084005;28;20406;-46
2021/12/27 01:36:02;;;;;;;5.28;3.92;;;;;;;;;;5086170;28;20027;-45
2021/12/27 01:38:28;;;;;;;4.78;3.40;;;;;;;;;;5083705;28;20036;-45
2021/12/27 01:40:54;;;;;;;4.78;3.42;;;;;;;;;;5085870;28;20575;-47
2021/12/27 01:43:24;;;;;;;4.68;3.05;;;;;;;;;;5089624;28;20122;-46
2021/12/27 01:45:51;;;;;;;6.07;3.58;;;;;;;;;;5105311;28;20514;-46
2021/12/27 01:48:21;;;;;;;4.70;3.17;;;;;;;;;;5108072;28;20452;-45
2021/12/27 01:50:47;;;;;;;5.25;3.72;;;;;;;;;;5099506;28;20505;-46
2021/12/27 01:53:14;;;;;;;5.75;3.33;;;;;;;;;;5069976;28;20407;-45
2021/12/27 01:55:40;;;;;;;5.28;3.35;;;;;;;;;;5087513;28;20028;-46
2021/12/27 01:58:06;;;;;;;4.75;3.13;;;;;;;;;;5108053;28;20537;-45
2021/12/27 02:00:33;;;;;;;4.93;3.15;;;;;;;;;;5108012;28;20031;-45
2021/12/27 02:02:59;;;;;;;4.07;3.13;;;;;;;;;;5106634;28;20032;-45
2021/12/27 02:05:25;;;;;;;4.70;3.40;;;;;;;;;;5071192;28;20115;-48
2021/12/27 02:07:51;;;;;;;6.60;3.80;;;;;;;;;;5086825;28;20147;-45
2021/12/27 02:10:17;;;;;;;5.70;3.75;;;;;;;;;;5087487;28;20034;-45
2021/12/27 02:12:44;;;;;;;5.25;3.55;;;;;;;;;;5088216;28;20542;-45
2021/12/27 02:15:12;;;;;;;5.43;3.90;;;;;;;;;;5069208;28;20437;-47
2021/12/27 02:17:39;;;;;;;4.53;3.00;;;;;;;;;;5104402;28;20102;-47
2021/12/27 02:20:07;;;;;;;4.85;2.92;;;;;;;;;;5107625;28;20031;-47
2021/12/27 02:22:36;;;;;;;5.20;3.00;;;;;;;;;;5072823;28;20115;-46
2021/12/27 02:25:05;;;;;;;4.47;2.50;;;;;;;;;;5077745;28;20036;-47
2021/12/27 02:27:31;;;;;;;3.63;2.83;;;;;;;;;;5101744;28;20027;-45
2021/12/27 02:29:57;;;;;;;4.32;2.38;;;;;;;;;;5107123;28;20023;-49
2021/12/27 02:32:23;;;;;;;4.13;2.60;;;;;;;;;;5078697;28;20020;-47
2021/12/27 02:34:49;;;;;;;3.80;2.53;;;;;;;;;;5105699;28;20107;-49
2021/12/27 02:37:15;;;;;;;4.53;2.58;;;;;;;;;;5100250;28;20498;-50
2021/12/27 02:39:44;;;;;;;3.63;2.10;;;;;;;;;;5108934;28;20104;-48
2021/12/27 02:42:10;;;;;;;3.08;2.10;;;;;;;;;;5093837;28;20637;-48
2021/12/27 02:44:36;;;;;;;2.75;2.00;;;;;;;;;;5097767;28;20081;-49
2021/12/27 02:47:02;;;;;;;2.97;2.15;;;;;;;;;;5098875;28;20067;-49
2021/12/27 02:49:28;;;;;;;2.70;2.05;;;;;;;;;;5088432;28;20570;-49
2021/12/27 02:51:54;;;;;;;3.28;2.35;;;;;;;;;;5089024;28;20024;-49
2021/12/27 02:54:20;;;;;;;4.57;2.80;;;;;;;;;;5088061;28;20044;-49
2021/12/27 02:56:48;;;;;;;3.13;2.40;;;;;;;;;;5087825;28;20486;-46
2021/12/27 02:59:14;;;;;;;3.92;2.22;;;;;;;;;;5089330;28;20126;-49
2021/12/27 03:01:40;;;;;;;2.78;2.10;;;;;;;;;;5088824;28;20035;-48
2021/12/27 03:04:06;;;;;;;4.03;2.60;;;;;;;;;;5088445;28;20423;-46
2021/12/27 03:06:32;;;;;;;3.75;2.28;;;;;;;;;;5092017;28;20482;-45
2021/12/27 03:08:58;;;;;;;4.38;2.80;;;;;;;;;;5109019;28;20486;-45
2021/12/27 03:11:24;;;;;;;4.45;2.70;;;;;;;;;;5108500;28;20039;-45
2021/12/27 03:13:51;;;;;;;3.92;2.67;;;;;;;;;;5109081;28;20015;-46
2021/12/27 03:16:18;;;;;;;3.72;2.80;;;;;;;;;;5105350;28;20482;-47
2021/12/27 03:18:47;;;;;;;4.20;2.95;;;;;;;;;;5092895;28;20024;-46
2021/12/27 03:21:13;;;;;;;4.10;2.92;;;;;;;;;;5109198;28;20020;-46
2021/12/27 03:23:39;;;;;;;3.92;2.78;;;;;;;;;;5090753;28;20153;-47
2021/12/27 03:26:06;;;;;;;4.68;3.20;;;;;;;;;;5107622;28;20034;-47
2021/12/27 03:28:32;;;;;;;4.18;2.85;;;;;;;;;;5088256;28;20115;-46
2021/12/27 03:30:58;;;;;;;4.07;2.78;;;;;;;;;;5087513;28;20028;-46
2021/12/27 03:33:25;;;;;;;4.90;2.88;;;;;;;;;;5106918;28;20058;-45
2021/12/27 03:36:01;;;;;;;5.90;2.53;;;;;;;;;;5108588;28;20483;-47
2021/12/27 03:38:29;;;;;;;3.17;2.20;;;;;;;;;;5103741;28;20032;-46
2021/12/27 03:40:55;;;;;;;2.42;2.13;;;;;;;;;;5108191;28;20034;-47
2021/12/27 03:43:21;;;;;;;3.08;2.22;;;;;;;;;;5108213;28;20024;-49
2021/12/27 03:45:47;;;;;;;3.00;2.03;;;;;;;;;;5108185;28;20034;-46
2021/12/27 03:48:13;;;;;;;3.33;2.45;;;;;;;;;;5089525;28;20032;-46
2021/12/27 03:50:39;;;;;;;5.10;2.88;;;;;;;;;;5087745;28;20024;-45
2021/12/27 03:53:07;;;;;;;3.97;2.70;;;;;;;;;;5091694;28;20028;-46
2021/12/27 03:55:33;;;;;;;4.18;2.17;;;;;;;;;;5108418;28;20012;-46
2021/12/27 03:58:24;;;;;;;3.50;2.15;;;;;;;;;;5108157;28;20023;-45
2021/12/27 04:03:19;;;;;;;2.28;1.88;;;;;;;;;;5086539;28;20039;-46
2021/12/27 04:05:45;;;;;;;3.17;2.42;;;;;;;;;;5086700;28;20454;-45
2021/12/27 04:08:12;;;;;;;3.60;2.40;;;;;;;;;;5093388;28;20046;-45
2021/12/27 04:10:39;;;;;;;3.78;2.63;;;;;;;;;;5092374;28;20452;-46
2021/12/27 04:13:06;;;;;;;4.10;2.67;;;;;;;;;;5107630;28;20669;-47
2021/12/27 04:15:32;;;;;;;3.35;2.58;;;;;;;;;;5107516;28;20667;-46
2021/12/27 04:17:58;;;;;;;3.85;2.80;;;;;;;;;;5098681;28;20035;-46
2021/12/27 04:20:24;;;;;;;3.20;2.28;;;;;;;;;;5087076;28;20020;-46
2021/12/27 04:22:51;;;;;;;3.53;2.40;;;;;;;;;;5087183;28;20070;-46
2021/12/27 04:25:18;;;;;;;4.20;2.80;;;;;;;;;;5085724;28;20028;-46
2021/12/27 04:27:44;;;;;;;4.07;2.50;;;;;;;;;;5090064;28;20164;-45
2021/12/27 04:30:11;;;;;;;3.75;2.55;;;;;;;;;;5107393;28;20031;-45
2021/12/27 04:32:37;;;;;;;4.05;2.72;;;;;;;;;;5107302;28;20027;-46
2021/12/27 04:35:04;;;;;;;3.85;2.50;;;;;;;;;;5107379;28;20066;-46
2021/12/27 04:37:30;;;;;;;3.33;2.70;;;;;;;;;;5104839;28;20399;-46
2021/12/27 04:39:56;;;;;;;3.00;2.17;;;;;;;;;;5105954;28;20122;-46
2021/12/27 04:42:23;;;;;;;3.00;2.33;;;;;;;;;;5105710;28;20096;-47
2021/12/27 04:44:49;;;;;;;3.53;2.35;;;;;;;;;;5107226;28;20024;-45
2021/12/27 04:47:16;;;;;;;2.85;2.00;;;;;;;;;;5107284;28;20498;-46
2021/12/27 04:49:43;;;;;;;3.55;2.40;;;;;;;;;;5086658;28;20028;-49
2021/12/27 04:52:10;;;;;;;4.47;2.58;;;;;;;;;;5086462;28;20024;-49
2021/12/27 04:54:36;;;;;;;4.70;2.70;;;;;;;;;;5086647;28;20621;-49
2021/12/27 04:57:02;;;;;;;3.75;2.20;;;;;;;;;;5086539;28;20530;-47
2021/12/27 04:59:28;;;;;;;3.90;2.33;;;;;;;;;;5102623;28;20399;-49
2021/12/27 05:01:54;;;;;;;4.72;2.67;;;;;;;;;;5106697;28;20031;-49
2021/12/27 05:04:20;;;;;;;3.65;2.30;;;;;;;;;;5106404;28;20027;-46
2021/12/27 05:06:46;;;;;;;3.30;2.38;;;;;;;;;;5106751;28;20470;-48
2021/12/27 05:09:13;;;;;;;4.80;2.55;;;;;;;;;;5104957;28;20055;-49
2021/12/27 05:11:40;;;;;;;3.72;2.60;;;;;;;;;;5105481;28;20170;-49
2021/12/27 05:14:06;;;;;;;3.97;2.67;;;;;;;;;;5106974;28;20023;-48
2021/12/27 05:16:32;;;;;;;3.08;2.00;;;;;;;;;;5105950;28;20020;-48
2021/12/27 05:18:58;;;;;;;4.00;2.35;;;;;;;;;;5092156;28;20043;-45
2021/12/27 05:21:24;;;;;;;4.53;2.25;;;;;;;;;;5086054;28;20058;-46
2021/12/27 05:23:51;;;;;;;4.05;2.78;;;;;;;;;;5085636;28;20025;-46
2021/12/27 05:26:17;;;;;;;4.45;2.60;;;;;;;;;;5089062;28;20507;-48
2021/12/27 05:28:43;;;;;;;4.45;2.60;;;;;;;;;;5105682;28;20032;-47
2021/12/27 05:31:09;;;;;;;4.10;2.60;;;;;;;;;;5105732;28;20063;-46
2021/12/27 05:33:35;;;;;;;3.35;2.33;;;;;;;;;;5106349;28;20047;-47
2021/12/27 05:36:01;;;;;;;4.15;2.50;;;;;;;;;;5106583;28;20040;-46
2021/12/27 05:38:27;;;;;;;3.10;2.38;;;;;;;;;;5103860;28;20027;-48
2021/12/27 05:40:54;;;;;;;2.92;1.80;;;;;;;;;;5106279;28;20479;-46
2021/12/27 05:43:20;;;;;;;3.95;2.58;;;;;;;;;;5106012;28;20019;-46
2021/12/27 05:45:46;;;;;;;3.33;2.10;;;;;;;;;;5106358;28;20114;-46
2021/12/27 05:48:13;;;;;;;2.67;2.03;;;;;;;;;;5098435;28;20506;-47
2021/12/27 05:50:39;;;;;;;2.97;2.25;;;;;;;;;;5084899;28;20118;-46
2021/12/27 05:53:05;;;;;;;2.72;2.00;;;;;;;;;;5085779;28;20093;-46
2021/12/27 05:55:31;;;;;;;2.10;1.90;;;;;;;;;;5085895;28;20028;-46
2021/12/27 05:57:58;;;;;;;3.50;2.38;;;;;;;;;;5085045;28;20016;-46
2021/12/27 06:00:24;;;;;;;2.97;2.17;;;;;;;;;;5087333;28;20396;-47
2021/12/27 06:02:51;;;;;;;2.03;1.80;;;;;;;;;;5092951;28;20024;-46
2021/12/27 06:05:18;;;;;;;4.40;1.80;;;;;;;;;;5085675;28;20028;-49
2021/12/27 06:07:44;;;;;;;1.75;1.50;;;;;;;;;;5085906;28;20428;-49
2021/12/27 06:10:10;;;;;;;3.53;1.80;;;;;;;;;;5084252;28;20032;-50
2021/12/27 06:12:37;;;;;;;3.83;2.35;;;;;;;;;;5085502;28;20035;-50
2021/12/27 06:15:03;;;;;;;2.85;1.92;;;;;;;;;;5085821;28;20029;-48
2021/12/27 06:17:31;;;;;;;2.60;1.75;;;;;;;;;;5085479;28;20028;-48
2021/12/27 06:19:58;;;;;;;2.53;1.80;;;;;;;;;;5085482;28;20185;-48
2021/12/27 06:22:24;;;;;;;2.75;1.90;;;;;;;;;;5085357;28;20031;-48
2021/12/27 06:24:51;;;;;;;3.05;2.13;;;;;;;;;;5085285;28;20105;-48
2021/12/27 06:27:17;;;;;;;2.00;1.52;;;;;;;;;;5105336;28;20036;-47
2021/12/27 06:29:43;;;;;;;2.50;1.98;;;;;;;;;;5088300;28;20367;-46
2021/12/27 06:32:14;;;;;;;2.72;2.17;;;;;;;;;;5108396;28;20043;-49
2021/12/27 06:34:41;;;;;;;3.00;1.95;;;;;;;;;;5109787;28;20019;-47
2021/12/27 06:37:07;;;;;;;2.75;1.98;;;;;;;;;;5108986;28;20024;-46
2021/12/27 06:39:34;;;;;;;2.40;1.90;;;;;;;;;;5105370;28;20032;-47
2021/12/27 06:42:00;;;;;;;2.40;1.92;;;;;;;;;;5107857;28;20169;-47
2021/12/27 06:44:26;;;;;;;3.45;1.95;;;;;;;;;;5109540;28;20501;-49
2021/12/27 06:46:52;;;;;;;2.88;1.73;;;;;;;;;;5108879;28;20031;-47
2021/12/27 06:49:18;;;;;;;2.75;1.90;;;;;;;;;;5106745;28;20034;-49
2021/12/27 06:51:45;;;;;;;2.83;1.75;;;;;;;;;;5071858;28;20064;-48
2021/12/27 06:54:11;;;;;;;3.92;2.38;;;;;;;;;;5088472;28;20201;-48
2021/12/27 06:56:37;;;;;;;3.85;2.20;;;;;;;;;;5104474;28;20031;-50
2021/12/27 06:59:03;;;;;;;3.30;2.42;;;;;;;;;;5109288;28;20054;-46
2021/12/27 07:01:30;;;;;;;2.78;1.92;;;;;;;;;;5108586;28;20494;-46
2021/12/27 07:03:56;;;;;;;3.15;2.10;;;;;;;;;;5109126;28;20031;-47
2021/12/27 07:06:22;;;;;;;3.50;2.20;;;;;;;;;;5100261;28;20050;-50
2021/12/27 07:08:48;;;;;;;3.15;2.20;;;;;;;;;;5088201;28;20518;-46
2021/12/27 07:11:14;;;;;;;3.20;2.30;;;;;;;;;;5087858;28;20089;-46
2021/12/27 07:13:40;;;;;;;3.85;2.55;;;;;;;;;;5087854;28;20050;-45
2021/12/27 07:16:06;;;;;;;3.13;2.35;;;;;;;;;;5087412;28;20028;-46
2021/12/27 07:18:32;;;;;;;4.00;2.70;;;;;;;;;;5088386;28;20032;-46
2021/12/27 07:20:58;;;;;;;3.53;2.45;;;;;;;;;;5088984;28;20024;-45
2021/12/27 07:23:25;;;;;;;3.53;2.38;;;;;;;;;;5088338;28;20028;-49
2021/12/27 07:25:51;;;;;;;4.35;2.58;;;;;;;;;;5094409;28;20023;-46
2021/12/27 07:28:17;;;;;;;4.07;2.72;;;;;;;;;;5099373;28;20103;-45
2021/12/27 07:30:43;;;;;;;4.05;3.03;;;;;;;;;;5087037;28;20047;-46
2021/12/27 07:33:09;;;;;;;5.28;3.40;;;;;;;;;;5107000;28;20069;-47
2021/12/27 07:35:36;;;;;;;4.15;2.97;;;;;;;;;;5108490;28;20036;-46
2021/12/27 07:38:02;;;;;;;5.03;3.28;;;;;;;;;;5108279;28;20106;-46
2021/12/27 07:40:28;;;;;;;4.53;3.50;;;;;;;;;;5099585;28;20035;-47
2021/12/27 07:42:54;;;;;;;4.80;3.58;;;;;;;;;;5088353;28;20140;-45
2021/12/27 07:45:20;;;;;;;6.43;3.30;;;;;;;;;;5087584;28;20556;-46
2021/12/27 07:47:47;;;;;;;4.97;3.00;;;;;;;;;;5088208;28;20578;-46
2021/12/27 07:50:13;;;;;;;4.53;2.92;;;;;;;;;;5088453;28;20043;-45
2021/12/27 07:52:39;;;;;;;4.18;2.88;;;;;;;;;;5084529;28;20016;-45
2021/12/27 07:55:06;;;;;;;7.22;3.33;;;;;;;;;;5086677;28;20099;-46
2021/12/27 07:57:32;;;;;;;3.92;2.60;;;;;;;;;;5088081;28;20030;-45
2021/12/27 07:59:58;;;;;;;4.78;3.13;;;;;;;;;;5085828;28;20711;-46
2021/12/27 08:02:24;;;;;;;4.45;2.92;;;;;;;;;;5086916;28;20437;-45
2021/12/27 08:04:50;;;;;;;4.35;2.60;;;;;;;;;;5087696;28;20051;-46
2021/12/27 08:07:16;;;;;;;5.45;2.80;;;;;;;;;;5093514;28;20386;-47
2021/12/27 08:09:42;;;;;;;4.55;3.28;;;;;;;;;;5108444;28;20042;-45
2021/12/27 08:12:12;;;;;;;3.58;2.60;;;;;;;;;;5106244;28;20034;-45
2021/12/27 08:14:38;;;;;;;3.60;2.70;;;;;;;;;;5088107;28;20099;-45
2021/12/27 08:17:04;;;;;;;4.05;3.50;;;;;;;;;;5092664;28;20107;-49
2021/12/27 08:19:30;;;;;;;4.00;2.75;;;;;;;;;;5097269;28;20038;-46
2021/12/27 08:21:56;;;;;;;4.28;2.60;;;;;;;;;;5107363;28;20019;-48
2021/12/27 08:24:22;;;;;;;5.50;2.70;;;;;;;;;;5092354;28;20499;-46
2021/12/27 08:26:48;;;;;;;4.75;2.85;;;;;;;;;;5087406;28;20695;-46
2021/12/27 08:29:14;;;;;;;4.57;2.65;;;;;;;;;;5086988;28;20056;-47
2021/12/27 08:31:40;;;;;;;5.80;2.80;;;;;;;;;;5102758;28;20023;-46
2021/12/27 08:34:06;;;;;;;5.60;2.70;;;;;;;;;;5107236;28;20415;-45
2021/12/27 08:36:32;;;;;;;4.50;2.50;;;;;;;;;;5107428;28;20024;-46
2021/12/27 08:38:59;;;;;;;4.22;2.47;;;;;;;;;;5089059;28;20039;-47
2021/12/27 08:41:27;;;;;;;3.42;2.10;;;;;;;;;;5085552;28;20095;-48
2021/12/27 08:43:55;;;;;;;4.65;2.35;;;;;;;;;;5086630;28;20049;-48
2021/12/27 08:46:21;;;;;;;3.67;2.40;;;;;;;;;;5086599;28;20028;-49
2021/12/27 08:48:47;;;;;;;2.85;1.95;;;;;;;;;;5086641;28;20027;-49
2021/12/27 08:51:14;;;;;;;3.50;2.28;;;;;;;;;;5084020;28;20530;-46
2021/12/27 08:53:40;;;;;;;4.70;2.78;;;;;;;;;;5078488;28;20209;-46
2021/12/27 08:56:06;;;;;;;4.38;2.80;;;;;;;;;;5084059;28;20395;-45
2021/12/27 08:58:32;;;;;;;6.95;2.47;;;;;;;;;;5090280;28;20024;-45
2021/12/27 09:00:58;;;;;;;5.18;2.60;;;;;;;;;;5103455;28;20639;-48
2021/12/27 09:03:24;;;;;;;4.18;2.35;;;;;;;;;;5080729;28;20032;-45
2021/12/27 09:05:50;;;;;;;5.60;2.45;;;;;;;;;;5089269;28;20019;-45
2021/12/27 09:08:17;;;;;;;4.75;2.00;;;;;;;;;;5087948;28;20081;-46
2021/12/27 09:10:44;;;;;;;3.40;2.00;;;;;;;;;;5085704;28;20457;-47
2021/12/27 09:13:10;;;;;;;2.70;2.10;;;;;;;;;;5086736;28;20020;-46
2021/12/27 09:15:36;;;;;;;3.92;2.20;;;;;;;;;;5098855;28;20028;-48
2021/12/27 09:18:02;;;;;;;4.53;2.47;;;;;;;;;;5103660;28;20024;-46
2021/12/27 09:20:28;;;;;;;4.65;2.75;;;;;;;;;;5107105;28;20795;-47
2021/12/27 09:22:55;;;;;;;3.88;2.53;;;;;;;;;;5099157;28;20032;-51
2021/12/27 09:25:21;;;;;;;3.90;2.67;;;;;;;;;;5088861;28;20038;-50
2021/12/27 09:27:48;;;;;;;3.90;2.53;;;;;;;;;;5088532;28;20051;-49
2021/12/27 09:30:14;;;;;;;4.15;2.20;;;;;;;;;;5104197;28;20040;-50
2021/12/27 09:32:40;;;;;;;3.92;2.20;;;;;;;;;;5091829;28;20019;-50
2021/12/27 09:35:07;;;;;;;3.90;2.00;;;;;;;;;;5091161;28;20474;-49
2021/12/27 09:37:33;;;;;;;3.78;2.00;;;;;;;;;;5096411;28;20035;-49
2021/12/27 09:39:59;;;;;;;4.47;2.22;;;;;;;;;;5094569;28;20066;-49
2021/12/27 09:42:26;;;;;;;4.97;2.10;;;;;;;;;;5106699;28;20665;-47
2021/12/27 09:44:53;;;;;;;4.63;2.40;;;;;;;;;;5091401;28;20051;-46
2021/12/27 09:47:20;;;;;;;4.22;2.28;;;;;;;;;;5085760;28;20039;-50
2021/12/27 09:49:46;;;;;;;6.57;2.30;;;;;;;;;;5086506;28;20290;-47
2021/12/27 09:52:13;;;;;;;6.53;2.40;;;;;;;;;;5085355;28;20103;-47
2021/12/27 09:54:39;;;;;;;4.88;2.55;;;;;;;;;;5086432;28;20055;-48
2021/12/27 09:57:06;;;;;;;4.97;2.65;;;;;;;;;;5085912;28;20048;-46
2021/12/27 09:59:32;;;;;;;4.57;2.80;;;;;;;;;;5079068;28;20517;-47
2021/12/27 10:01:58;;;;;;;7.18;2.67;;;;;;;;;;5084675;28;20035;-47
2021/12/27 10:04:24;;;;;;;3.97;2.50;;;;;;;;;;5087313;28;20257;-49
2021/12/27 10:06:52;;;;;;;3.50;2.67;;;;;;;;;;5088322;28;20102;-48
2021/12/27 10:09:18;;;;;;;5.88;3.47;;;;;;;;;;5070304;28;20061;-48
2021/12/27 10:11:46;;;;;;;6.40;2.63;;;;;;;;;;5076061;28;20028;-46
2021/12/27 10:14:16;;;;;;;3.58;2.92;;;;;;;;;;5100443;28;20020;-47
2021/12/27 10:16:45;;;;;;;3.42;2.90;;;;;;;;;;5102109;28;20482;-48
2021/12/27 10:19:13;;;;;;;4.28;2.65;;;;;;;;;;5082944;28;20055;-47
2021/12/27 10:21:41;;;;;;;4.22;2.97;;;;;;;;;;5108586;28;20016;-49
2021/12/27 10:24:15;;;;;;;5.28;3.70;;;;;;;;;;5090355;28;20024;-51
2021/12/27 10:26:41;;;;;;;;;;;;;;;;;;5090914;28;20569;-46
2021/12/27 10:29:12;;;;;;;4.82;3.20;;;;;;;;;;5107163;28;20002;-47
2021/12/27 10:31:56;;;;;;;4.30;3.42;;;;;;;;;;5108928;28;20028;-48
2021/12/27 10:34:23;;;;;;;6.78;3.67;;;;;;;;;;5095340;28;20028;-47
2021/12/27 10:37:07;;;;;;;5.88;3.58;;;;;;;;;;5088238;28;20040;-48
2021/12/27 10:39:51;;;;;;;6.78;3.22;;;;;;;;;;5090345;28;20034;-47
2021/12/27 10:42:23;;;;;;;7.30;4.22;;;;;;;;;;5070023;28;20107;-46
2021/12/27 10:44:53;;;;;;;5.28;3.92;;;;;;;;;;5087615;28;20110;-47
2021/12/27 10:47:24;;;;;;;5.80;3.63;;;;;;;;;;5090427;28;20119;-47
2021/12/27 10:49:50;;;;;;;4.65;3.42;;;;;;;;;;5106582;28;20068;-48
2021/12/27 10:52:16;;;;;;;4.30;2.90;;;;;;;;;;5107580;28;20085;-47
2021/12/27 10:54:42;;;;;;;4.72;2.90;;;;;;;;;;5108748;28;20028;-46
2021/12/27 10:57:09;;;;;;;3.95;2.83;;;;;;;;;;5108534;28;20487;-48
2021/12/27 10:59:35;;;;;;;4.35;3.25;;;;;;;;;;5099820;28;20102;-47
2021/12/27 11:02:13;;;;;;;5.15;3.63;;;;;;;;;;5076720;28;20028;-47
2021/12/27 11:04:39;;;;;;;4.30;3.45;;;;;;;;;;5088231;28;20032;-48
2021/12/27 11:07:06;;;;;;;4.05;3.00;;;;;;;;;;5084326;28;20103;-47
2021/12/27 11:09:32;;;;;;;4.47;3.28;;;;;;;;;;5069423;28;20077;-48
2021/12/27 11:11:58;;;;;;;4.05;3.20;;;;;;;;;;5093282;28;20120;-49
2021/12/27 11:14:24;;;;;;;3.85;3.13;;;;;;;;;;5106852;28;20533;-47
2021/12/27 11:16:50;;;;;;;3.85;2.72;;;;;;;;;;5094867;28;20031;-47
2021/12/27 11:19:16;;;;;;;4.43;2.95;;;;;;;;;;5086731;28;20024;-47
2021/12/27 11:21:45;;;;;;;4.22;3.33;;;;;;;;;;5079015;28;20111;-48
2021/12/27 11:24:12;;;;;;;5.03;3.58;;;;;;;;;;5080622;28;20020;-45
2021/12/27 11:26:40;;;;;;;4.75;3.53;;;;;;;;;;5080138;28;20050;-48
2021/12/27 11:29:09;;;;;;;3.33;2.78;;;;;;;;;;5086756;28;20029;-49
2021/12/27 11:31:37;;;;;;;3.03;2.72;;;;;;;;;;5085312;28;20059;-49
2021/12/27 11:34:07;;;;;;;4.13;3.20;;;;;;;;;;5092316;28;20035;-49
2021/12/27 11:36:34;;;;;;;4.18;3.00;;;;;;;;;;5107645;28;20031;-47
2021/12/27 11:39:22;;;;;;;3.05;2.47;;;;;;;;;;5096964;28;20494;-46
2021/12/27 11:41:57;;;;;;;2.78;2.30;;;;;;;;;;5085405;28;20156;-50
2021/12/27 11:44:32;;;;;;;2.63;2.40;;;;;;;;;;5067582;28;20048;-50
2021/12/27 11:46:59;;;;;;;3.33;2.47;;;;;;;;;;5082392;28;20535;-49
2021/12/27 11:49:33;;;;;;;4.18;2.40;;;;;;;;;;5082843;28;20028;-48
2021/12/27 11:52:14;;;;;;;3.83;2.00;;;;;;;;;;5088466;28;20758;-48
2021/12/27 11:54:48;;;;;;;4.18;2.60;;;;;;;;;;5088031;28;20035;-47
2021/12/27 11:57:34;;;;;;;2.53;2.08;;;;;;;;;;5096723;28;20024;-46
2021/12/27 12:00:00;;;;;;;4.65;2.53;;;;;;;;;;5091204;28;20103;-49
2021/12/27 12:02:27;;;;;;;2.47;1.90;;;;;;;;;;5086380;28;20059;-49
2021/12/27 12:04:55;;;;;;;3.08;1.90;;;;;;;;;;5090059;28;20032;-47
2021/12/27 12:07:33;;;;;;;4.22;2.67;;;;;;;;;;5084008;28;20399;-50
2021/12/27 12:10:04;;;;;;;4.18;2.38;;;;;;;;;;5086945;28;20024;-46
2021/12/27 12:12:30;;;;;;;4.53;2.92;;;;;;;;;;5079974;28;20024;-48
2021/12/27 12:14:57;;;;;;;6.68;3.60;;;;;;;;;;5106598;28;20074;-49
2021/12/27 12:17:37;;;;;;;7.75;3.97;;;;;;;;;;5106304;28;20023;-47
2021/12/27 12:20:03;;;;;;;5.03;3.50;;;;;;;;;;5087674;28;20024;-49
2021/12/27 12:22:35;;;;;;;7.03;5.00;;;;;;;;;;5089060;28;20153;-50
2021/12/27 12:25:11;;;;;;;7.55;5.35;;;;;;;;;;5065111;28;20029;-49
2021/12/27 12:27:37;;;;;;;7.35;4.70;;;;;;;;;;5048712;28;20032;-50
2021/12/27 12:30:04;;;;;;;5.68;4.05;;;;;;;;;;5066952;28;20052;-50
2021/12/27 12:32:30;;;;;;;4.43;3.60;;;;;;;;;;5073706;28;20055;-49
2021/12/27 12:34:56;;;;;;;4.07;3.22;;;;;;;;;;5085201;28;20066;-49
2021/12/27 12:37:22;;;;;;;5.68;4.00;;;;;;;;;;5087186;28;20024;-46
2021/12/27 12:39:50;;;;;;;10.27;6.63;;;;;;;;;;5086916;28;20028;-47
2021/12/27 12:42:27;;;;;;;6.60;4.25;;;;;;;;;;5085732;28;20064;-49
2021/12/27 12:44:53;;;;;;;6.20;4.00;;;;;;;;;;5085951;28;20031;-46
2021/12/27 12:47:24;;;;;;;4.75;3.08;;;;;;;;;;5067723;28;20061;-50
2021/12/27 12:49:50;;;;;;;5.38;3.40;;;;;;;;;;5087049;28;20665;-48
2021/12/27 12:52:16;;;;;;;4.70;3.35;;;;;;;;;;5086379;28;20028;-46
2021/12/27 12:54:43;;;;;;;4.03;3.03;;;;;;;;;;5086117;28;20028;-47
2021/12/27 12:57:27;;;;;;;3.60;2.50;;;;;;;;;;5085395;28;20020;-46
2021/12/27 12:59:55;;;;;;;3.88;2.75;;;;;;;;;;5086993;28;20027;-49
2021/12/27 13:02:25;;;;;;;3.63;2.53;;;;;;;;;;5085007;28;20040;-47
2021/12/27 13:04:51;;;;;;;3.60;3.10;;;;;;;;;;5085585;28;20028;-47
2021/12/27 13:07:33;;;;;;;4.88;4.00;;;;;;;;;;5062713;28;20059;-47
2021/12/27 13:09:59;;;;;;;5.60;3.90;;;;;;;;;;5084843;28;20032;-48
2021/12/27 13:12:26;;;;;;;4.45;3.53;;;;;;;;;;5086035;28;20457;-47
2021/12/27 13:14:53;;;;;;;3.70;3.03;;;;;;;;;;5086368;28;20051;-48
2021/12/27 13:17:20;;;;;;;4.45;3.20;;;;;;;;;;5085728;28;20035;-46
2021/12/27 13:19:59;;;;;;;3.92;3.00;;;;;;;;;;5085440;28;20387;-47
2021/12/27 13:22:45;;;;;;;9.73;6.75;;;;;;;;;;5086464;28;20027;-48
2021/12/27 13:25:13;;;;;;;7.40;5.80;;;;;;;;;;5083661;28;20032;-49
2021/12/27 13:27:39;;;;;;;5.13;4.45;;;;;;;;;;5070462;28;20119;-49
2021/12/27 13:30:08;;;;;;;3.88;3.40;;;;;;;;;;5084829;28;20470;-47
2021/12/27 13:32:35;;;;;;;3.72;2.83;;;;;;;;;;5075420;28;20112;-51
2021/12/27 13:35:01;;;;;;;4.60;2.45;;;;;;;;;;5082975;28;20028;-47
2021/12/27 13:37:27;;;;;;;4.57;2.55;;;;;;;;;;5084416;28;20040;-48
2021/12/27 13:40:07;;;;;;;3.33;2.42;;;;;;;;;;5088589;28;20024;-47
2021/12/27 13:42:33;;;;;;;4.28;2.00;;;;;;;;;;5087398;28;20035;-46
2021/12/27 13:45:15;;;;;;;3.45;2.35;;;;;;;;;;5086601;28;20038;-49
2021/12/27 13:47:49;;;;;;;2.75;2.28;;;;;;;;;;5093828;28;20036;-48
2021/12/27 13:50:15;;;;;;;3.13;2.20;;;;;;;;;;5088986;28;20574;-50
2021/12/27 13:52:44;;;;;;;4.13;2.40;;;;;;;;;;5089720;28;20024;-47
2021/12/27 13:55:21;;;;;;;2.75;2.22;;;;;;;;;;5098982;28;20380;-47
2021/12/27 13:57:47;;;;;;;2.90;2.47;;;;;;;;;;5103048;28;20020;-47
2021/12/27 14:00:14;;;;;;;3.42;2.30;;;;;;;;;;5087723;28;20118;-50
2021/12/27 14:02:43;;;;;;;3.08;2.47;;;;;;;;;;5086967;28;20028;-47
2021/12/27 14:05:10;;;;;;;3.35;2.38;;;;;;;;;;5088365;28;20503;-47
2021/12/27 14:07:36;;;;;;;3.17;2.38;;;;;;;;;;5067229;28;20542;-49
2021/12/27 14:10:03;;;;;;;2.78;2.38;;;;;;;;;;5085668;28;20531;-47
2021/12/27 14:12:31;;;;;;;3.95;2.58;;;;;;;;;;5053173;28;20072;-48
2021/12/27 14:15:01;;;;;;;3.33;2.20;;;;;;;;;;5087863;28;20082;-48
2021/12/27 14:17:28;;;;;;;4.45;2.83;;;;;;;;;;5087926;28;20673;-47
2021/12/27 14:20:00;;;;;;;3.75;2.45;;;;;;;;;;5069760;28;20055;-47
2021/12/27 14:22:27;;;;;;;3.70;2.50;;;;;;;;;;5087502;28;20124;-48
2021/12/27 14:24:54;;;;;;;3.55;2.78;;;;;;;;;;5099933;28;20456;-49
2021/12/27 14:27:25;;;;;;;3.97;2.58;;;;;;;;;;5081371;28;20427;-49
2021/12/27 14:30:10;;;;;;;5.20;2.85;;;;;;;;;;5066994;28;20069;-46
2021/12/27 14:32:38;;;;;;;2.95;2.33;;;;;;;;;;5087220;28;20556;-47
2021/12/27 14:35:25;;;;;;;3.05;2.42;;;;;;;;;;5098292;28;20455;-46
2021/12/27 14:37:53;;;;;;;4.22;2.10;;;;;;;;;;5085070;28;20444;-49
2021/12/27 14:40:21;;;;;;;2.83;2.20;;;;;;;;;;5086484;28;20475;-46
2021/12/27 14:42:48;;;;;;;2.70;2.20;;;;;;;;;;5086458;28;20410;-46
2021/12/27 14:45:14;;;;;;;2.45;1.90;;;;;;;;;;5085686;28;20108;-46
2021/12/27 14:47:41;;;;;;;3.42;2.42;;;;;;;;;;5087840;28;20079;-48